Ranch Taos, New Mexico
Current Conditions -  °F | °C
As of 5:55 AM on Saturday 20 Dec 2014 (Local Time) from KSKX Reporting Station
Clear Clear  
Wind Chill:   Ceiling: Unl
Heat Index: 10°   Visibility: 10mi
Dew Point:   Wind: 5mph
Humidity: 85%   Direction: 350°N
Pressure: 30.17"   Gusts: NA
Location:  36.2692°N, 105.543°W
Report Text: KSKX 201255Z AUTO 35004KT 10SM CLR M12/M14 A3017 RMK AO1
Loading
Personal Weather Stations






























Interactive Weather Map New forecast layout! Learn more

10-Day Weather Forecast

Advertisements
Track Severe Weather on mobile